Time;durP1;ratioP1;P1;durP2;ratioP2;P2;SDS_P1;SDS_P2;PMS_P1;PMS_P2;Temp;Humidity;BMP_temperature;BMP_pressure;BME280_temperature;BME280_humidity;BME280_pressure;Samples;Min_cycle;Max_cycle;Signal;HPM_P1;HPM_P2
2021/06/09 00:00:33;;;;;;;0.60;0.50;;;20.50;99.90;;;;;;20988442;28;20235;-67
2021/06/09 00:10:38;;;;;;;0.97;0.90;;;20.20;99.90;;;;;;20986845;28;20207;-68
2021/06/09 00:20:41;;;;;;;0.67;0.57;;;20.00;99.90;;;;;;20986158;28;20227;-65
2021/06/09 00:30:47;;;;;;;1.33;0.93;;;19.90;99.90;;;;;;20985326;28;20193;-66
2021/06/09 00:40:50;;;;;;;1.23;1.17;;;19.90;99.90;;;;;;20984785;28;20716;-67
2021/06/09 00:50:57;;;;;;;1.00;0.93;;;19.80;99.90;;;;;;20984121;28;20299;-66
2021/06/09 01:01:00;;;;;;;0.77;0.70;;;19.70;99.90;;;;;;21015422;22;20283;-68
2021/06/09 01:11:07;;;;;;;1.60;0.77;;;19.80;99.90;;;;;;20900182;28;20251;-68
2021/06/09 01:21:13;;;;;;;0.80;0.80;;;20.00;99.90;;;;;;20900377;28;20533;-68
2021/06/09 01:31:18;;;;;;;0.60;0.60;;;20.00;99.90;;;;;;20981067;28;20189;-68
2021/06/09 01:41:22;;;;;;;1.23;1.03;;;20.10;99.90;;;;;;20981678;28;20224;-67
2021/06/09 01:51:28;;;;;;;0.60;0.60;;;19.80;99.90;;;;;;20963879;28;20640;-67
2021/06/09 02:01:31;;;;;;;1.17;1.07;;;19.50;99.90;;;;;;20964109;28;20247;-69
2021/06/09 02:11:38;;;;;;;9.07;0.87;;;19.50;99.90;;;;;;20980652;28;20672;-68
2021/06/09 02:21:43;;;;;;;0.87;0.87;;;19.40;99.90;;;;;;20992056;28;20696;-68
2021/06/09 02:31:49;;;;;;;2.90;1.13;;;19.10;99.90;;;;;;20993621;28;20284;-68
2021/06/09 02:41:52;;;;;;;2.43;1.13;;;19.20;99.90;;;;;;20994502;28;20252;-67
2021/06/09 02:52:03;;;;;;;1.03;0.73;;;19.00;99.90;;;;;;20992985;28;20199;-68
2021/06/09 03:02:13;;;;;;;1.13;1.00;;;19.00;99.90;;;;;;21018741;22;20322;-69
2021/06/09 03:12:34;;;;;;;0.40;0.23;;;18.80;99.90;;;;;;20991705;28;20199;-69
2021/06/09 03:22:43;;;;;;;4.23;0.70;;;18.80;99.90;;;;;;20990752;28;20216;-68
2021/06/09 03:32:53;;;;;;;0.57;0.57;;;19.20;99.90;;;;;;20989779;28;20193;-69
2021/06/09 03:43:02;;;;;;;2.97;0.80;;;18.90;99.90;;;;;;20988650;28;20223;-69
2021/06/09 03:53:06;;;;;;;0.60;0.40;;;18.90;99.90;;;;;;20988327;28;20228;-67
2021/06/09 04:03:11;;;;;;;0.80;0.80;;;18.90;99.90;;;;;;21000072;22;20236;-66
2021/06/09 04:13:17;;;;;;;0.60;0.60;;;19.10;99.90;;;;;;20984327;28;20205;-66
2021/06/09 04:23:20;;;;;;;0.73;0.67;;;19.30;99.90;;;;;;20981077;28;20224;-65
2021/06/09 04:33:30;;;;;;;0.40;0.40;;;19.60;99.90;;;;;;20984573;28;20193;-68
2021/06/09 04:43:34;;;;;;;1.03;1.00;;;19.80;99.90;;;;;;20983602;28;20238;-67
2021/06/09 04:53:38;;;;;;;0.50;0.33;;;19.80;99.90;;;;;;20965047;28;20197;-68
2021/06/09 05:03:41;;;;;;;0.50;0.50;;;20.00;99.90;;;;;;20983709;28;20251;-68
2021/06/09 05:13:48;;;;;;;0.50;0.50;;;20.30;99.90;;;;;;20982430;28;20246;-67
2021/06/09 05:23:54;;;;;;;0.30;0.30;;;20.70;99.90;;;;;;20941847;28;20231;-67
2021/06/09 05:34:00;;;;;;;0.70;0.70;;;20.90;99.90;;;;;;20897930;28;20190;-69
2021/06/09 05:44:05;;;;;;;3.67;1.60;;;21.30;99.90;;;;;;20897871;28;20694;-66
2021/06/09 05:54:12;;;;;;;0.87;0.87;;;21.40;99.90;;;;;;20887265;28;20208;-66
2021/06/09 06:04:15;;;;;;;0.63;0.63;;;21.60;99.90;;;;;;20944326;28;20236;-66
2021/06/09 06:14:24;;;;;;;4.10;2.17;;;22.00;99.90;;;;;;20989104;28;20204;-67
2021/06/09 06:24:27;;;;;;;0.70;0.70;;;22.40;99.90;;;;;;20986725;28;20307;-70
2021/06/09 06:34:33;;;;;;;1.30;1.20;;;22.70;99.90;;;;;;20992285;28;20258;-66
2021/06/09 06:44:40;;;;;;;1.75;1.23;;;22.90;99.90;;;;;;20989669;28;20265;-67
2021/06/09 06:54:45;;;;;;;1.40;0.83;;;23.10;99.90;;;;;;20955108;28;20203;-67
2021/06/09 07:04:49;;;;;;;1.93;1.13;;;23.20;99.90;;;;;;20945429;28;20256;-67
2021/06/09 07:14:54;;;;;;;3.72;2.05;;;23.00;99.90;;;;;;20947596;28;20189;-67
2021/06/09 07:24:59;;;;;;;5.73;2.47;;;23.40;99.90;;;;;;20940805;28;20299;-68
2021/06/09 07:35:04;;;;;;;2.17;1.33;;;23.50;99.90;;;;;;20946549;28;20193;-68
2021/06/09 07:45:10;;;;;;;4.10;1.65;;;23.70;99.90;;;;;;20939920;28;20296;-68
2021/06/09 07:55:15;;;;;;;2.70;1.63;;;23.90;99.90;;;;;;20903900;28;20226;-67
2021/06/09 08:05:18;;;;;;;2.42;1.77;;;24.20;99.90;;;;;;20902233;28;20241;-67
2021/06/09 08:15:23;;;;;;;6.53;2.60;;;24.00;99.90;;;;;;20911750;28;20549;-67
2021/06/09 08:25:26;;;;;;;1.58;1.48;;;24.00;99.90;;;;;;20951858;28;20236;-69
2021/06/09 08:35:31;;;;;;;3.80;2.03;;;24.40;99.90;;;;;;20979639;28;20637;-65
2021/06/09 08:45:34;;;;;;;2.42;1.52;;;24.70;99.90;;;;;;20977504;28;20226;-63
2021/06/09 08:55:39;;;;;;;5.13;1.77;;;24.90;99.90;;;;;;20977094;28;20188;-64
2021/06/09 09:05:42;;;;;;;3.65;2.83;;;25.30;99.90;;;;;;20957040;28;20323;-63
2021/06/09 09:15:47;;;;;;;2.10;1.92;;;25.30;99.90;;;;;;20979126;28;20207;-67
2021/06/09 09:25:52;;;;;;;2.40;1.50;;;25.20;99.90;;;;;;20982868;28;20228;-66
2021/06/09 09:35:57;;;;;;;2.15;1.58;;;25.60;99.90;;;;;;20993995;28;20586;-66
2021/06/09 09:46:08;;;;;;;6.55;2.15;;;25.80;99.90;;;;;;20993156;28;20599;-63
2021/06/09 09:56:16;;;;;;;3.28;2.50;;;25.90;99.90;;;;;;20992981;28;20199;-63
2021/06/09 10:06:28;;;;;;;2.72;1.42;;;25.60;99.90;;;;;;20989341;28;20227;-63
2021/06/09 10:16:34;;;;;;;1.73;1.50;;;25.90;99.90;;;;;;20970621;28;20202;-63
2021/06/09 10:26:40;;;;;;;5.70;1.98;;;26.60;99.90;;;;;;20986134;28;20320;-66
2021/06/09 10:36:48;;;;;;;2.38;1.83;;;26.70;99.90;;;;;;20989581;28;20629;-65
2021/06/09 10:46:54;;;;;;;2.53;1.77;;;26.80;99.90;;;;;;20987455;28;20220;-63
2021/06/09 10:56:59;;;;;;;3.50;1.73;;;27.60;99.90;;;;;;20985851;28;20537;-63
2021/06/09 11:07:02;;;;;;;3.80;2.53;;;27.80;99.90;;;;;;20985669;28;20304;-65
2021/06/09 11:17:06;;;;;;;5.78;1.58;;;27.90;99.90;;;;;;20987323;28;20212;-66
2021/06/09 11:27:28;;;;;;;1.73;1.40;;;27.80;99.90;;;;;;20918116;28;20227;-65
2021/06/09 11:37:33;;;;;;;4.40;2.13;;;28.70;99.90;;;;;;20898744;28;20280;-66
2021/06/09 11:47:36;;;;;;;2.72;1.52;;;29.40;99.90;;;;;;20980500;28;20229;-67
2021/06/09 11:57:41;;;;;;;1.55;1.45;;;29.80;99.90;;;;;;20966120;28;20207;-66
2021/06/09 12:07:44;;;;;;;3.55;1.70;;;30.40;99.90;;;;;;20983605;28;20701;-64
2021/06/09 12:17:49;;;;;;;4.28;1.58;;;30.90;99.90;;;;;;20980147;28;20189;-63
2021/06/09 12:28:04;;;;;;;8.07;2.10;;;31.40;99.90;;;;;;20978228;28;20244;-63
2021/06/09 12:38:10;;;;;;;3.15;1.55;;;32.30;99.90;;;;;;20978436;28;20199;-62
2021/06/09 12:48:17;;;;;;;2.03;1.08;;;32.60;99.90;;;;;;20980457;28;20303;-65
2021/06/09 12:58:23;;;;;;;0.95;0.82;;;32.10;99.90;;;;;;20961970;28;20189;-64
2021/06/09 13:08:28;;;;;;;7.38;1.98;;;32.70;99.90;;;;;;20978138;28;20328;-63
2021/06/09 13:18:49;;;;;;;0.95;0.73;;;32.50;99.90;;;;;;20957308;28;20288;-66
2021/06/09 13:28:52;;;;;;;2.97;1.63;;;32.80;99.90;;;;;;20977148;28;20220;-64
2021/06/09 13:38:57;;;;;;;2.10;1.08;;;32.90;99.90;;;;;;20976674;28;20193;-65
2021/06/09 13:49:00;;;;;;;2.20;1.60;;;33.30;99.90;;;;;;20976753;28;20416;-65
2021/06/09 13:59:17;;;;;;;1.50;1.40;;;32.50;99.90;;;;;;20975573;28;20654;-65
2021/06/09 14:09:28;;;;;;;1.67;1.55;;;32.60;99.90;;;;;;20958119;28;20571;-66
2021/06/09 14:19:33;;;;;;;2.97;1.48;;;32.90;99.90;;;;;;20984791;28;20408;-64
2021/06/09 14:29:36;;;;;;;3.40;1.25;;;29.80;99.90;;;;;;20983856;28;20279;-64
2021/06/09 14:39:41;;;;;;;2.28;1.83;;;33.50;99.90;;;;;;20987902;28;20491;-63
2021/06/09 14:49:46;;;;;;;0.82;0.60;;;32.50;99.90;;;;;;20985667;28;20269;-64
2021/06/09 14:59:52;;;;;;;1.10;0.68;;;33.80;99.90;;;;;;20967792;28;20315;-65
2021/06/09 15:09:56;;;;;;;1.95;0.85;;;33.80;99.90;;;;;;20985792;28;20250;-64
2021/06/09 15:20:01;;;;;;;1.33;0.65;;;34.50;99.90;;;;;;20977268;28;20255;-65
2021/06/09 15:30:06;;;;;;;0.45;0.45;;;34.70;99.90;;;;;;20983024;28;20224;-63
2021/06/09 15:40:12;;;;;;;2.20;1.63;;;33.00;99.90;;;;;;20983923;28;20684;-65
2021/06/09 15:50:16;;;;;;;1.17;0.93;;;30.90;99.90;;;;;;20983290;28;20285;-64
2021/06/09 16:00:21;;;;;;;0.85;0.77;;;28.80;99.90;;;;;;20982062;28;20260;-64
2021/06/09 16:10:24;;;;;;;0.90;0.80;;;27.80;99.90;;;;;;20981501;28;20220;-65
2021/06/09 16:20:30;;;;;;;1.08;0.80;;;26.70;99.90;;;;;;20968889;28;20228;-65
2021/06/09 16:30:33;;;;;;;0.57;0.50;;;26.40;99.90;;;;;;20929097;28;20235;-65
2021/06/09 16:40:38;;;;;;;1.35;0.90;;;26.40;99.90;;;;;;20957302;28;20185;-66
2021/06/09 16:50:43;;;;;;;1.23;1.02;;;27.00;99.90;;;;;;20958073;28;20781;-67
2021/06/09 17:00:48;;;;;;;0.75;0.73;;;26.30;99.90;;;;;;20976550;28;20221;-66
2021/06/09 17:10:51;;;;;;;1.02;0.88;;;26.40;99.90;;;;;;20976394;28;20250;-66
2021/06/09 17:20:56;;;;;;;0.75;0.68;;;26.30;99.90;;;;;;20958604;28;20655;-68
2021/06/09 17:31:01;;;;;;;1.15;0.50;;;26.00;99.90;;;;;;20957719;28;21095;-71
2021/06/09 17:41:06;;;;;;;0.75;0.75;;;26.30;99.90;;;;;;20957817;28;20662;-66
2021/06/09 17:51:11;;;;;;;1.00;0.88;;;26.40;99.90;;;;;;20968090;28;20584;-68
2021/06/09 18:01:35;;;;;;;1.33;0.88;;;26.50;99.90;;;;;;20983765;28;20245;-65
2021/06/09 18:11:39;;;;;;;1.02;0.77;;;26.50;99.90;;;;;;20956574;28;20270;-66
2021/06/09 18:21:43;;;;;;;0.60;0.52;;;26.40;99.90;;;;;;20930422;28;20280;-66
2021/06/09 18:31:47;;;;;;;1.05;0.70;;;25.60;99.90;;;;;;20931904;28;20213;-66
2021/06/09 18:41:52;;;;;;;3.85;1.10;;;25.90;99.90;;;;;;20979194;28;20203;-67
2021/06/09 18:51:55;;;;;;;2.25;1.70;;;25.80;99.90;;;;;;20927506;28;20282;-67
2021/06/09 19:02:00;;;;;;;1.27;1.17;;;26.00;99.90;;;;;;20957625;28;20232;-65
2021/06/09 19:12:04;;;;;;;1.05;0.82;;;26.10;99.90;;;;;;20903221;28;20251;-66
2021/06/09 19:22:09;;;;;;;0.45;0.40;;;25.00;99.90;;;;;;20929559;28;20193;-64
2021/06/09 19:32:16;;;;;;;3.83;0.70;;;24.50;99.90;;;;;;20985775;28;20196;-66
2021/06/09 19:42:22;;;;;;;1.02;0.60;;;24.40;99.90;;;;;;20946087;28;20186;-65
2021/06/09 19:52:27;;;;;;;1.45;0.93;;;24.60;99.90;;;;;;20912541;28;20593;-67
2021/06/09 20:02:31;;;;;;;2.83;1.25;;;24.50;99.90;;;;;;20936571;28;20229;-65
2021/06/09 20:12:46;;;;;;;3.00;0.70;;;24.60;99.90;;;;;;20938707;28;20229;-65
2021/06/09 20:22:55;;;;;;;0.95;0.55;;;24.50;99.90;;;;;;20909898;28;20220;-66
2021/06/09 20:33:00;;;;;;;0.70;0.70;;;24.30;99.90;;;;;;20918330;28;20199;-67
2021/06/09 20:43:04;;;;;;;1.08;0.98;;;24.30;99.90;;;;;;20984898;28;20270;-67
2021/06/09 20:53:12;;;;;;;4.07;0.80;;;23.80;99.90;;;;;;20980643;28;20195;-66
2021/06/09 21:03:17;;;;;;;3.00;1.52;;;23.60;99.90;;;;;;20967864;28;20259;-67
2021/06/09 21:13:21;;;;;;;1.37;1.23;;;23.60;99.90;;;;;;20938999;28;20211;-67
2021/06/09 21:23:25;;;;;;;0.90;0.67;;;23.30;99.90;;;;;;20955654;28;20226;-66
2021/06/09 21:33:28;;;;;;;5.77;2.30;;;23.00;99.90;;;;;;20953230;28;20594;-66
2021/06/09 21:43:33;;;;;;;1.70;0.63;;;22.90;99.90;;;;;;20938489;28;20220;-67
2021/06/09 21:53:36;;;;;;;10.93;1.53;;;22.90;99.90;;;;;;20937765;28;20288;-67
2021/06/09 22:03:41;;;;;;;0.67;0.67;;;22.70;99.90;;;;;;20937436;28;20229;-67
2021/06/09 22:13:45;;;;;;;0.57;0.57;;;22.60;99.90;;;;;;20957504;28;20197;-68
2021/06/09 22:23:51;;;;;;;0.60;0.60;;;22.70;99.90;;;;;;20922254;28;20213;-67
2021/06/09 22:33:54;;;;;;;1.63;1.30;;;22.40;99.90;;;;;;20926697;28;20284;-67
2021/06/09 22:43:59;;;;;;;1.40;0.77;;;22.20;99.90;;;;;;20994349;28;20307;-67
2021/06/09 22:54:02;;;;;;;1.27;1.03;;;22.10;99.90;;;;;;20976438;28;20215;-68
2021/06/09 23:04:07;;;;;;;1.40;1.23;;;21.90;99.90;;;;;;20992774;28;20243;-68
2021/06/09 23:14:10;;;;;;;1.50;1.13;;;21.70;99.90;;;;;;20991551;28;20251;-68
2021/06/09 23:24:14;;;;;;;1.43;1.10;;;21.60;99.90;;;;;;20991104;28;20234;-68
2021/06/09 23:34:18;;;;;;;0.80;0.80;;;21.50;99.90;;;;;;20990016;28;20196;-66
2021/06/09 23:44:23;;;;;;;2.73;1.90;;;21.40;99.90;;;;;;20988378;28;20227;-66
2021/06/09 23:54:26;;;;;;;2.20;1.33;;;21.40;99.90;;;;;;20987571;28;20280;-68
